Wetterstation Vordersexau
Wetterdaten: Woche 16.05.11 - 22.05.11 (KW20)
Datum Zeit Temp. A. Feuchte A. Luftdruck Regen Wind Richtung Taupunkt Windchill Windben
16.05.2011 00:00 8,5 C 85 % 1023,8 hPa 0,0 l/m 0,0 km/h NO 6,1 C 8,5 C 0,0 km/h
16.05.2011 01:00 8,8 C 86 % 1024,4 hPa 0,7 l/m 0,0 km/h SO 6,6 C 8,8 C 0,0 km/h
16.05.2011 02:00 8,5 C 86 % 1024,1 hPa 0,0 l/m 0,0 km/h NO 6,3 C 8,5 C 0,0 km/h
16.05.2011 03:00 7,4 C 86 % 1024,1 hPa 0,0 l/m 0,0 km/h NO 5,2 C 7,4 C 0,0 km/h
16.05.2011 04:00 7,5 C 86 % 1024,4 hPa 0,0 l/m 0,0 km/h NO 5,3 C 7,5 C 0,0 km/h
16.05.2011 05:00 7,2 C 86 % 1024,4 hPa 0,0 l/m 0,0 km/h O-NO 5,0 C 7,2 C 0,0 km/h
16.05.2011 06:00 7,4 C 86 % 1024,5 hPa 0,0 l/m 0,0 km/h O-SO 5,2 C 7,4 C 0,0 km/h
16.05.2011 07:00 9,1 C 85 % 1025,0 hPa 0,0 l/m 0,0 km/h N 6,7 C 9,1 C 0,0 km/h
16.05.2011 08:00 11,5 C 85 % 1025,2 hPa 0,0 l/m 0,0 km/h W-SW 9,1 C 11,5 C 0,0 km/h
16.05.2011 09:00 14,4 C 74 % 1025,2 hPa 0,0 l/m 0,0 km/h W 9,8 C 14,4 C 0,0 km/h
16.05.2011 10:00 19,1 C 56 % 1025,2 hPa 0,0 l/m 2,6 km/h SW 10,1 C 19,1 C 1,4 km/h
16.05.2011 11:00 19,5 C 51 % 1025,0 hPa 0,0 l/m 17,5 km/h S-SW 9,1 C 16,1 C 9,7 km/h
16.05.2011 12:00 19,8 C 48 % 1024,8 hPa 0,0 l/m 0,0 km/h W-SW 8,5 C 19,8 C 0,0 km/h
16.05.2011 13:00 17,5 C 51 % 1024,7 hPa 0,0 l/m 24,0 km/h W 7,3 C 12,2 C 13,3 km/h
16.05.2011 14:00 15,8 C 56 % 1024,7 hPa 0,0 l/m 14,9 km/h W 7,0 C 12,2 C 8,3 km/h
16.05.2011 15:00 19,6 C 47 % 1024,2 hPa 0,0 l/m 24,0 km/h SW 8,0 C 15,0 C 13,3 km/h
16.05.2011 16:00 17,2 C 51 % 1023,9 hPa 0,0 l/m 20,1 km/h W-SW 7,0 C 12,6 C 11,2 km/h
16.05.2011 17:00 17,0 C 53 % 1023,7 hPa 0,0 l/m 3,9 km/h SW 7,4 C 17,0 C 2,2 km/h
16.05.2011 18:00 15,8 C 56 % 1023,6 hPa 0,0 l/m 5,8 km/h S-SW 7,0 C 15,8 C 3,2 km/h
16.05.2011 19:00 15,6 C 58 % 1023,4 hPa 0,0 l/m 0,0 km/h W-SW 7,4 C 15,6 C 0,0 km/h
16.05.2011 20:00 14,3 C 62 % 1023,4 hPa 0,0 l/m 0,0 km/h S-SO 7,1 C 14,3 C 0,0 km/h
16.05.2011 21:00 10,7 C 74 % 1023,3 hPa 0,0 l/m 0,0 km/h N-NO 6,3 C 10,7 C 0,0 km/h
16.05.2011 22:00 10,0 C 78 % 1023,5 hPa 0,0 l/m 0,0 km/h O-NO 6,3 C 10,0 C 0,0 km/h
16.05.2011 23:00 9,8 C 80 % 1023,3 hPa 0,0 l/m 0,0 km/h SO 6,5 C 9,8 C 0,0 km/h
17.05.2011 00:00 10,1 C 81 % 1023,3 hPa 0,0 l/m 0,0 km/h SO 7,0 C 10,1 C 0,0 km/h
17.05.2011 01:00 10,3 C 82 % 1023,4 hPa 0,0 l/m 0,6 km/h S-SO 7,4 C 10,3 C 0,4 km/h
17.05.2011 02:00 10,8 C 81 % 1022,9 hPa 0,0 l/m 0,0 km/h SO 7,7 C 10,8 C 0,0 km/h
17.05.2011 03:00 10,9 C 81 % 1022,6 hPa 0,0 l/m 0,0 km/h S-SO 7,8 C 10,9 C 0,0 km/h
17.05.2011 04:00 11,0 C 81 % 1022,2 hPa 0,0 l/m 0,0 km/h SO 7,9 C 11,0 C 0,0 km/h
17.05.2011 05:00 10,3 C 82 % 1022,1 hPa 0,0 l/m 0,0 km/h SO 7,4 C 10,3 C 0,0 km/h
17.05.2011 06:00 10,4 C 82 % 1022,0 hPa 0,0 l/m 0,0 km/h SO 7,5 C 10,4 C 0,0 km/h
17.05.2011 07:00 12,1 C 81 % 1022,2 hPa 0,0 l/m 0,0 km/h O-SO 8,9 C 12,1 C 0,0 km/h
17.05.2011 08:00 14,5 C 75 % 1022,3 hPa 0,0 l/m 0,0 km/h O-SO 10,1 C 14,5 C 0,0 km/h
17.05.2011 09:00 17,5 C 63 % 1022,1 hPa 0,0 l/m 0,0 km/h S-SW 10,4 C 17,5 C 0,0 km/h
17.05.2011 10:00 19,1 C 58 % 1021,8 hPa 0,0 l/m 0,0 km/h NW 10,6 C 19,1 C 0,0 km/h
17.05.2011 11:00 20,4 C 53 % 1021,7 hPa 0,0 l/m 1,9 km/h W 10,5 C 20,4 C 1,1 km/h
17.05.2011 12:00 22,0 C 48 % 1021,4 hPa 0,0 l/m 4,5 km/h N-NW 10,5 C 22,0 C 2,5 km/h
17.05.2011 13:00 22,3 C 48 % 1021,1 hPa 0,0 l/m 0,0 km/h W 10,8 C 22,3 C 0,0 km/h
17.05.2011 14:00 23,4 C 44 % 1020,5 hPa 0,0 l/m 3,2 km/h W 10,4 C 23,4 C 1,8 km/h
17.05.2011 15:00 23,4 C 44 % 1020,4 hPa 0,0 l/m 1,3 km/h S 10,4 C 23,4 C 0,7 km/h
17.05.2011 16:00 25,3 C 42 % 1019,9 hPa 0,0 l/m 9,1 km/h W 11,5 C 24,7 C 5,0 km/h
17.05.2011 17:00 25,3 C 40 % 1019,4 hPa 0,0 l/m 0,0 km/h SO 10,7 C 25,3 C 0,0 km/h
17.05.2011 18:00 23,6 C 45 % 1018,7 hPa 0,0 l/m 0,0 km/h NO 11,0 C 23,6 C 0,0 km/h
17.05.2011 19:00 24,6 C 41 % 1018,7 hPa 0,0 l/m 0,0 km/h O-NO 10,5 C 24,6 C 0,0 km/h
17.05.2011 20:00 18,8 C 57 % 1018,7 hPa 0,0 l/m 0,0 km/h SO 10,1 C 18,8 C 0,0 km/h
17.05.2011 21:00 14,9 C 69 % 1018,7 hPa 0,0 l/m 0,0 km/h SO 9,3 C 14,9 C 0,0 km/h
17.05.2011 22:00 12,7 C 75 % 1018,7 hPa 0,0 l/m 0,0 km/h S-SO 8,4 C 12,7 C 0,0 km/h
17.05.2011 23:00 12,1 C 76 % 1018,6 hPa 0,0 l/m 0,0 km/h S-SO 8,0 C 12,1 C 0,0 km/h
18.05.2011 00:00 11,3 C 77 % 1018,7 hPa 0,0 l/m 0,0 km/h NO 7,4 C 11,3 C 0,0 km/h
18.05.2011 01:00 10,8 C 79 % 1018,2 hPa 0,0 l/m 0,0 km/h S-SO 7,3 C 10,8 C 0,0 km/h
18.05.2011 02:00 9,9 C 81 % 1017,9 hPa 0,0 l/m 0,0 km/h S-SO 6,8 C 9,9 C 0,0 km/h
18.05.2011 03:00 9,3 C 83 % 1017,8 hPa 0,0 l/m 0,0 km/h SO 6,6 C 9,3 C 0,0 km/h
18.05.2011 04:00 8,9 C 84 % 1017,9 hPa 0,0 l/m 0,0 km/h O-NO 6,3 C 8,9 C 0,0 km/h
18.05.2011 05:00 8,4 C 85 % 1017,5 hPa 0,0 l/m 0,0 km/h SO 6,0 C 8,4 C 0,0 km/h
18.05.2011 06:00 8,6 C 85 % 1017,5 hPa 0,0 l/m 1,9 km/h S-SO 6,2 C 8,6 C 1,1 km/h
18.05.2011 07:00 10,2 C 84 % 1017,5 hPa 0,0 l/m 4,5 km/h S-SO 7,6 C 10,2 C 2,5 km/h
18.05.2011 08:00 20,6 C 60 % 1017,7 hPa 0,0 l/m 0,0 km/h SW 12,6 C 20,6 C 0,0 km/h
18.05.2011 09:00 24,2 C 47 % 1017,5 hPa 0,0 l/m 0,0 km/h W 12,2 C 24,2 C 0,0 km/h
18.05.2011 10:00 26,3 C 43 % 1017,1 hPa 0,0 l/m 2,6 km/h W-SW 12,7 C 26,3 C 1,4 km/h
18.05.2011 11:00 26,3 C 41 % 1016,9 hPa 0,0 l/m 16,8 km/h W-NW 12,0 C 24,7 C 9,4 km/h
18.05.2011 12:00 25,9 C 38 % 1016,4 hPa 0,0 l/m 0,0 km/h N-NO 10,5 C 25,9 C 0,0 km/h
18.05.2011 13:00 27,1 C 37 % 1015,7 hPa 0,0 l/m 0,0 km/h N 11,1 C 27,1 C 0,0 km/h
18.05.2011 14:00 27,4 C 36 % 1015,3 hPa 0,0 l/m 0,0 km/h NO 11,0 C 27,4 C 0,0 km/h
18.05.2011 15:00 31,7 C 31 % 1014,3 hPa 0,0 l/m 5,2 km/h W 12,5 C 31,7 C 2,9 km/h
18.05.2011 16:00 34,6 C 25 % 1013,8 hPa 0,0 l/m 5,2 km/h NW 11,7 C 34,6 C 2,9 km/h
18.05.2011 17:00 34,8 C 23 % 1013,3 hPa 0,0 l/m 1,3 km/h W 10,6 C 34,8 C 0,7 km/h
18.05.2011 18:00 31,3 C 28 % 1012,9 hPa 0,0 l/m 0,0 km/h W-SW 10,6 C 31,3 C 0,0 km/h
18.05.2011 19:00 30,3 C 26 % 1013,0 hPa 0,0 l/m 0,0 km/h W-SW 8,6 C 30,3 C 0,0 km/h
18.05.2011 20:00 20,6 C 52 % 1013,0 hPa 0,0 l/m 0,0 km/h SO 10,4 C 20,6 C 0,0 km/h
18.05.2011 21:00 16,7 C 60 % 1013,4 hPa 0,0 l/m 0,0 km/h O-SO 8,9 C 16,7 C 0,0 km/h
18.05.2011 22:00 14,8 C 70 % 1013,6 hPa 0,0 l/m 0,0 km/h O-SO 9,4 C 14,8 C 0,0 km/h
18.05.2011 23:00 13,9 C 75 % 1014,0 hPa 0,0 l/m 0,0 km/h NO 9,5 C 13,9 C 0,0 km/h
19.05.2011 00:00 12,7 C 77 % 1014,1 hPa 0,0 l/m 0,0 km/h NO 8,8 C 12,7 C 0,0 km/h
19.05.2011 01:00 12,1 C 79 % 1014,1 hPa 0,0 l/m 0,0 km/h O-NO 8,6 C 12,1 C 0,0 km/h
19.05.2011 02:00 12,3 C 79 % 1014,1 hPa 0,0 l/m 0,0 km/h SO 8,8 C 12,3 C 0,0 km/h
19.05.2011 03:00 11,3 C 83 % 1014,4 hPa 0,0 l/m 2,6 km/h SO 8,5 C 11,3 C 1,4 km/h
19.05.2011 04:00 11,7 C 82 % 1014,3 hPa 0,0 l/m 0,0 km/h SO 8,7 C 11,7 C 0,0 km/h
19.05.2011 05:00 10,4 C 83 % 1014,5 hPa 0,0 l/m 0,0 km/h S-SO 7,6 C 10,4 C 0,0 km/h
19.05.2011 06:00 10,8 C 84 % 1014,6 hPa 0,0 l/m 1,9 km/h SO 8,2 C 10,8 C 1,1 km/h
19.05.2011 07:00 12,6 C 82 % 1014,6 hPa 0,0 l/m 0,0 km/h SO 9,6 C 12,6 C 0,0 km/h
19.05.2011 08:00 20,9 C 62 % 1014,9 hPa 0,0 l/m 0,0 km/h S-SW 13,3 C 20,9 C 0,0 km/h
19.05.2011 09:00 28,1 C 41 % 1015,2 hPa 0,0 l/m 1,3 km/h W 13,6 C 28,1 C 0,7 km/h
19.05.2011 10:00 28,6 C 37 % 1014,9 hPa 0,0 l/m 6,5 km/h W-SW 12,5 C 28,6 C 3,6 km/h
19.05.2011 11:00 28,6 C 35 % 1014,8 hPa 0,0 l/m 0,0 km/h W-NW 11,6 C 28,6 C 0,0 km/h
19.05.2011 12:00 27,9 C 37 % 1014,5 hPa 0,0 l/m 2,6 km/h NW 11,8 C 27,9 C 1,4 km/h
19.05.2011 13:00 28,6 C 34 % 1014,2 hPa 0,0 l/m 0,0 km/h W-SW 11,2 C 28,6 C 0,0 km/h
19.05.2011 14:00 29,6 C 32 % 1014,0 hPa 0,0 l/m 0,0 km/h N 11,1 C 29,6 C 0,0 km/h
19.05.2011 15:00 26,4 C 36 % 1013,5 hPa 0,0 l/m 0,6 km/h S 10,1 C 26,4 C 0,4 km/h
19.05.2011 16:00 19,4 C 61 % 1015,4 hPa 0,0 l/m 7,8 km/h SO 11,7 C 18,8 C 4,3 km/h
19.05.2011 17:00 14,9 C 83 % 1015,4 hPa 3,9 l/m 4,5 km/h SO 12,0 C 14,9 C 2,5 km/h
19.05.2011 18:00 15,8 C 82 % 1015,1 hPa 0,0 l/m 0,0 km/h NO 12,7 C 15,8 C 0,0 km/h
19.05.2011 19:00 16,6 C 80 % 1015,1 hPa 0,0 l/m 0,0 km/h O 13,1 C 16,6 C 0,0 km/h
19.05.2011 20:00 15,6 C 82 % 1015,6 hPa 0,0 l/m 0,0 km/h SO 12,5 C 15,6 C 0,0 km/h
19.05.2011 21:00 13,8 C 84 % 1015,5 hPa 0,0 l/m 0,0 km/h S-SO 11,1 C 13,8 C 0,0 km/h
19.05.2011 22:00 12,9 C 85 % 1016,0 hPa 0,0 l/m 0,0 km/h SO 10,4 C 12,9 C 0,0 km/h
19.05.2011 23:00 12,1 C 86 % 1016,7 hPa 0,0 l/m 0,0 km/h SO 9,8 C 12,1 C 0,0 km/h
20.05.2011 00:00 11,6 C 86 % 1016,6 hPa 0,0 l/m 0,0 km/h O-NO 9,3 C 11,6 C 0,0 km/h
20.05.2011 01:00 11,3 C 86 % 1017,0 hPa 0,0 l/m 0,0 km/h S-SO 9,0 C 11,3 C 0,0 km/h
20.05.2011 02:00 11,8 C 85 % 1016,9 hPa 0,0 l/m 0,0 km/h SO 9,4 C 11,8 C 0,0 km/h
20.05.2011 03:00 11,9 C 86 % 1016,6 hPa 0,0 l/m 0,0 km/h NO 9,6 C 11,9 C 0,0 km/h
20.05.2011 04:00 11,9 C 87 % 1016,5 hPa 0,0 l/m 0,0 km/h SO 9,8 C 11,9 C 0,0 km/h
20.05.2011 05:00 11,2 C 86 % 1016,4 hPa 0,0 l/m 0,0 km/h SO 8,9 C 11,2 C 0,0 km/h
20.05.2011 06:00 11,0 C 86 % 1016,7 hPa 0,0 l/m 0,0 km/h S-SO 8,7 C 11,0 C 0,0 km/h
20.05.2011 07:00 13,6 C 86 % 1017,2 hPa 0,0 l/m 1,9 km/h S-SO 11,3 C 13,6 C 1,1 km/h
20.05.2011 08:00 20,9 C 68 % 1017,7 hPa 0,0 l/m 0,0 km/h NO 14,8 C 20,9 C 0,0 km/h
20.05.2011 09:00 21,5 C 62 % 1017,7 hPa 0,0 l/m 0,0 km/h SO 13,9 C 21,5 C 0,0 km/h
20.05.2011 10:00 24,6 C 55 % 1017,7 hPa 0,0 l/m 0,0 km/h W-SW 14,9 C 24,6 C 0,0 km/h
20.05.2011 11:00 25,6 C 50 % 1017,7 hPa 0,0 l/m 0,0 km/h W 14,4 C 25,6 C 0,0 km/h
20.05.2011 12:00 25,5 C 51 % 1017,7 hPa 0,0 l/m 0,0 km/h S 14,6 C 25,5 C 0,0 km/h
20.05.2011 13:00 27,4 C 45 % 1017,1 hPa 0,0 l/m 1,9 km/h W-SW 14,4 C 27,4 C 1,1 km/h
20.05.2011 14:00 28,3 C 39 % 1016,7 hPa 0,0 l/m 12,3 km/h S-SO 13,0 C 27,6 C 6,8 km/h
20.05.2011 15:00 31,2 C 35 % 1016,2 hPa 0,0 l/m 5,8 km/h SW 13,9 C 31,2 C 3,2 km/h
20.05.2011 16:00 26,2 C 43 % 1015,9 hPa 0,0 l/m 1,3 km/h N-NO 12,6 C 26,2 C 0,7 km/h
20.05.2011 17:00 28,5 C 37 % 1015,8 hPa 0,0 l/m 0,0 km/h SO 12,4 C 28,5 C 0,0 km/h
20.05.2011 18:00 28,6 C 42 % 1015,3 hPa 0,0 l/m 0,0 km/h NW 14,4 C 28,6 C 0,0 km/h
20.05.2011 19:00 21,8 C 51 % 1016,6 hPa 0,0 l/m 5,8 km/h O 11,2 C 21,8 C 3,2 km/h
20.05.2011 20:00 18,9 C 62 % 1017,0 hPa 0,0 l/m 0,0 km/h NO 11,5 C 18,9 C 0,0 km/h
20.05.2011 21:00 16,9 C 73 % 1017,4 hPa 0,0 l/m 0,0 km/h O-NO 12,0 C 16,9 C 0,0 km/h
20.05.2011 22:00 14,9 C 78 % 1017,6 hPa 0,0 l/m 0,0 km/h SO 11,1 C 14,9 C 0,0 km/h
20.05.2011 23:00 13,4 C 81 % 1018,2 hPa 0,0 l/m 0,0 km/h NO 10,2 C 13,4 C 0,0 km/h
21.05.2011 00:00 12,4 C 84 % 1018,5 hPa 0,0 l/m 0,0 km/h NO 9,8 C 12,4 C 0,0 km/h
21.05.2011 01:00 11,9 C 84 % 1018,7 hPa 0,0 l/m 0,0 km/h S-SO 9,3 C 11,9 C 0,0 km/h
21.05.2011 02:00 11,6 C 85 % 1018,7 hPa 0,0 l/m 0,0 km/h S-SO 9,2 C 11,6 C 0,0 km/h
21.05.2011 03:00 11,3 C 86 % 1018,7 hPa 0,0 l/m 3,2 km/h O-NO 9,0 C 11,3 C 1,8 km/h
21.05.2011 04:00 10,8 C 86 % 1018,6 hPa 0,0 l/m 0,0 km/h SO 8,6 C 10,8 C 0,0 km/h
21.05.2011 05:00 10,4 C 86 % 1018,9 hPa 0,0 l/m 0,0 km/h S-SO 8,2 C 10,4 C 0,0 km/h
21.05.2011 06:00 10,5 C 86 % 1019,3 hPa 0,0 l/m 0,0 km/h SO 8,3 C 10,5 C 0,0 km/h
21.05.2011 07:00 12,7 C 85 % 1019,7 hPa 0,0 l/m 3,2 km/h S-SO 10,2 C 12,7 C 1,8 km/h
21.05.2011 08:00 21,1 C 64 % 1019,7 hPa 0,0 l/m 1,3 km/h SO 14,0 C 21,1 C 0,7 km/h
21.05.2011 09:00 26,6 C 48 % 1019,7 hPa 0,0 l/m 0,0 km/h N-NO 14,7 C 26,6 C 0,0 km/h
21.05.2011 10:00 27,1 C 46 % 1019,5 hPa 0,0 l/m 0,0 km/h NW 14,5 C 27,1 C 0,0 km/h
21.05.2011 11:00 27,9 C 44 % 1019,1 hPa 0,0 l/m 3,2 km/h W-NW 14,5 C 27,9 C 1,8 km/h
21.05.2011 12:00 26,8 C 50 % 1018,7 hPa 0,0 l/m 5,2 km/h NW 15,5 C 26,8 C 2,9 km/h
21.05.2011 13:00 28,2 C 45 % 1017,9 hPa 0,0 l/m 25,9 km/h O-SO 15,1 C 26,4 C 14,4 km/h
21.05.2011 14:00 27,6 C 42 % 1018,0 hPa 0,0 l/m 7,1 km/h S-SO 13,5 C 27,5 C 4,0 km/h
21.05.2011 15:00 27,3 C 49 % 1017,6 hPa 0,0 l/m 19,4 km/h NO 15,6 C 25,7 C 10,8 km/h
21.05.2011 16:00 33,5 C 34 % 1016,7 hPa 0,0 l/m 14,3 km/h SW 15,4 C 33,5 C 7,9 km/h
21.05.2011 17:00 33,9 C 28 % 1016,3 hPa 0,0 l/m 0,0 km/h S-SW 12,8 C 33,9 C 0,0 km/h
21.05.2011 18:00 33,8 C 27 % 1015,8 hPa 0,0 l/m 0,0 km/h NO 12,2 C 33,8 C 0,0 km/h
21.05.2011 19:00 29,1 C 33 % 1015,8 hPa 0,0 l/m 0,0 km/h SO 11,2 C 29,1 C 0,0 km/h
21.05.2011 20:00 21,6 C 53 % 1016,0 hPa 0,0 l/m 5,8 km/h SO 11,6 C 21,6 C 3,2 km/h
21.05.2011 21:00 17,3 C 70 % 1016,2 hPa 0,0 l/m 0,0 km/h S-SO 11,8 C 17,3 C 0,0 km/h
21.05.2011 22:00 16,1 C 76 % 1016,5 hPa 0,0 l/m 3,2 km/h O-SO 11,9 C 16,1 C 1,8 km/h
21.05.2011 23:00 15,1 C 80 % 1016,5 hPa 0,0 l/m 0,0 km/h S-SO 11,7 C 15,1 C 0,0 km/h
22.05.2011 00:00 14,2 C 81 % 1016,3 hPa 0,0 l/m 0,0 km/h SO 11,0 C 14,2 C 0,0 km/h
22.05.2011 01:00 13,3 C 83 % 1016,2 hPa 0,0 l/m 1,3 km/h O-NO 10,5 C 13,3 C 0,7 km/h
22.05.2011 02:00 12,9 C 84 % 1015,8 hPa 0,0 l/m 0,0 km/h NO 10,3 C 12,9 C 0,0 km/h
22.05.2011 03:00 12,5 C 84 % 1015,9 hPa 0,0 l/m 0,0 km/h SO 9,9 C 12,5 C 0,0 km/h
22.05.2011 04:00 11,4 C 85 % 1015,7 hPa 0,0 l/m 0,0 km/h SO 9,0 C 11,4 C 0,0 km/h
22.05.2011 05:00 11,1 C 86 % 1015,7 hPa 0,0 l/m 0,0 km/h SO 8,8 C 11,1 C 0,0 km/h
22.05.2011 06:00 11,5 C 86 % 1015,8 hPa 0,0 l/m 0,0 km/h NO 9,2 C 11,5 C 0,0 km/h
22.05.2011 07:00 14,1 C 85 % 1016,1 hPa 0,0 l/m 0,0 km/h O 11,6 C 14,1 C 0,0 km/h
22.05.2011 08:00 21,2 C 70 % 1016,3 hPa 0,0 l/m 0,0 km/h W-NW 15,5 C 21,2 C 0,0 km/h
22.05.2011 09:00 23,4 C 55 % 1016,5 hPa 0,0 l/m 0,0 km/h N-NW 13,8 C 23,4 C 0,0 km/h
22.05.2011 10:00 27,4 C 49 % 1016,6 hPa 0,0 l/m 0,0 km/h W-SW 15,7 C 27,4 C 0,0 km/h
22.05.2011 11:00 26,6 C 48 % 1017,0 hPa 0,0 l/m 7,1 km/h W 14,7 C 26,5 C 4,0 km/h
22.05.2011 12:00 26,5 C 49 % 1016,6 hPa 0,0 l/m 0,0 km/h W 14,9 C 26,5 C 0,0 km/h
22.05.2011 13:00 26,6 C 48 % 1016,3 hPa 0,0 l/m 0,0 km/h W 14,7 C 26,6 C 0,0 km/h
22.05.2011 14:00 25,4 C 47 % 1016,6 hPa 0,0 l/m 2,6 km/h W 13,3 C 25,4 C 1,4 km/h
22.05.2011 15:00 25,9 C 51 % 1016,0 hPa 0,0 l/m 11,0 km/h W 15,0 C 25,0 C 6,1 km/h
22.05.2011 16:00 34,4 C 34 % 1016,2 hPa 0,0 l/m 0,0 km/h S-SW 16,2 C 34,4 C 0,0 km/h
22.05.2011 17:00 34,4 C 31 % 1015,8 hPa 0,0 l/m 0,0 km/h W 14,8 C 34,4 C 0,0 km/h
22.05.2011 18:00 26,4 C 45 % 1016,1 hPa 0,0 l/m 2,6 km/h W-NW 13,5 C 26,4 C 1,4 km/h
22.05.2011 19:00 24,5 C 50 % 1017,0 hPa 0,0 l/m 3,9 km/h NW 13,4 C 24,5 C 2,2 km/h
22.05.2011 20:00 23,0 C 54 % 1018,0 hPa 0,0 l/m 14,3 km/h NW 13,2 C 21,0 C 7,9 km/h
22.05.2011 21:00 21,3 C 57 % 1018,9 hPa 0,0 l/m 9,7 km/h NO 12,4 C 20,2 C 5,4 km/h
22.05.2011 22:00 19,4 C 59 % 1020,1 hPa 0,0 l/m 3,2 km/h N-NW 11,2 C 19,4 C 1,8 km/h
22.05.2011 23:00 17,4 C 69 % 1021,2 hPa 0,0 l/m 0,0 km/h N-NO 11,7 C 17,4 C 0,0 km/h
Min-Datum _ 16.05.11 18.05.11 18.05.11 - 16.05.11 - 16.05.11 16.05.11 16.05.11
_ Min-Zeit 05:30 17:30 18:30 - 00:30 - 05:30 05:30 00:30
Minimum _ 7,2 C 23 % 1012,9 hPa - 0,0 km/h - 5,0 C 7,2 C 0,0 km/h
Max-Datum _ 18.05.11 20.05.11 16.05.11 19.05.11 21.05.11 - 22.05.11 18.05.11 21.05.11
_ Max-Zeit 17:30 04:30 08:30 17:30 13:30 - 16:30 17:30 13:30
Maximum _ 34,8 C 87 % 1025,2 hPa 3,9 l/m 25,9 km/h
O-SO
- 16,2 C 34,8 C 14,4 km/h
O-SO
Durchschnitt _ 18,5 C 64 % 1018,2 hPa #4,6 l/m 2,2 km/h SO 10,5 C 18,3 C 1,2 km/h
www.sexauwetter.de